sensor_id;sensor_type;location;lat;lon;timestamp;P1;durP1;ratioP1;P2;durP2;ratioP2
56927;SDS011;60850;52.502;13.426;2022-12-29T00:01:48;2.80;;;1.83;;
56927;SDS011;60850;52.502;13.426;2022-12-29T00:04:16;6.90;;;3.30;;
56927;SDS011;60850;52.502;13.426;2022-12-29T00:06:44;3.85;;;2.22;;
56927;SDS011;60850;52.502;13.426;2022-12-29T00:09:11;6.05;;;2.10;;
56927;SDS011;60850;52.502;13.426;2022-12-29T00:11:39;3.08;;;1.58;;
56927;SDS011;60850;52.502;13.426;2022-12-29T00:14:08;9.13;;;3.58;;
56927;SDS011;60850;52.502;13.426;2022-12-29T00:16:53;7.43;;;2.42;;
56927;SDS011;60850;52.502;13.426;2022-12-29T00:19:21;5.32;;;2.78;;
56927;SDS011;60850;52.502;13.426;2022-12-29T00:22:15;5.53;;;1.92;;
56927;SDS011;60850;52.502;13.426;2022-12-29T00:27:44;5.03;;;1.45;;
56927;SDS011;60850;52.502;13.426;2022-12-29T00:30:28;4.10;;;1.60;;
56927;SDS011;60850;52.502;13.426;2022-12-29T00:33:26;5.13;;;1.52;;
56927;SDS011;60850;52.502;13.426;2022-12-29T00:36:15;3.72;;;1.85;;
56927;SDS011;60850;52.502;13.426;2022-12-29T00:38:45;4.50;;;1.90;;
56927;SDS011;60850;52.502;13.426;2022-12-29T00:41:33;5.85;;;2.63;;
56927;SDS011;60850;52.502;13.426;2022-12-29T00:44:17;5.55;;;1.92;;
56927;SDS011;60850;52.502;13.426;2022-12-29T00:46:44;7.07;;;2.92;;
56927;SDS011;60850;52.502;13.426;2022-12-29T00:49:12;5.60;;;2.03;;
56927;SDS011;60850;52.502;13.426;2022-12-29T00:52:00;3.13;;;1.63;;
56927;SDS011;60850;52.502;13.426;2022-12-29T00:54:29;3.28;;;1.50;;
56927;SDS011;60850;52.502;13.426;2022-12-29T00:56:58;2.42;;;1.55;;
56927;SDS011;60850;52.502;13.426;2022-12-29T00:59:26;3.58;;;1.42;;
56927;SDS011;60850;52.502;13.426;2022-12-29T01:01:53;4.45;;;1.77;;
56927;SDS011;60850;52.502;13.426;2022-12-29T01:04:23;2.13;;;1.38;;
56927;SDS011;60850;52.502;13.426;2022-12-29T01:06:51;1.65;;;1.05;;
56927;SDS011;60850;52.502;13.426;2022-12-29T01:09:20;3.60;;;1.52;;
56927;SDS011;60850;52.502;13.426;2022-12-29T01:12:05;3.92;;;1.52;;
56927;SDS011;60850;52.502;13.426;2022-12-29T01:14:34;3.10;;;1.80;;
56927;SDS011;60850;52.502;13.426;2022-12-29T01:17:01;5.72;;;1.85;;
56927;SDS011;60850;52.502;13.426;2022-12-29T01:19:28;2.03;;;1.50;;
56927;SDS011;60850;52.502;13.426;2022-12-29T01:21:56;3.40;;;1.63;;
56927;SDS011;60850;52.502;13.426;2022-12-29T01:24:25;2.65;;;1.30;;
56927;SDS011;60850;52.502;13.426;2022-12-29T01:26:52;3.67;;;1.60;;
56927;SDS011;60850;52.502;13.426;2022-12-29T01:29:19;3.85;;;1.42;;
56927;SDS011;60850;52.502;13.426;2022-12-29T01:31:47;3.50;;;1.60;;
56927;SDS011;60850;52.502;13.426;2022-12-29T01:34:15;5.20;;;1.70;;
56927;SDS011;60850;52.502;13.426;2022-12-29T01:36:42;3.58;;;1.60;;
56927;SDS011;60850;52.502;13.426;2022-12-29T01:39:09;3.38;;;1.60;;
56927;SDS011;60850;52.502;13.426;2022-12-29T01:41:37;3.70;;;1.38;;
56927;SDS011;60850;52.502;13.426;2022-12-29T01:47:04;4.15;;;1.52;;
56927;SDS011;60850;52.502;13.426;2022-12-29T01:49:34;2.50;;;1.30;;
56927;SDS011;60850;52.502;13.426;2022-12-29T01:52:02;2.33;;;1.30;;
56927;SDS011;60850;52.502;13.426;2022-12-29T01:54:34;3.00;;;1.55;;
56927;SDS011;60850;52.502;13.426;2022-12-29T01:57:09;3.92;;;1.40;;
56927;SDS011;60850;52.502;13.426;2022-12-29T01:59:41;3.22;;;1.30;;
56927;SDS011;60850;52.502;13.426;2022-12-29T02:02:12;3.33;;;1.65;;
56927;SDS011;60850;52.502;13.426;2022-12-29T02:04:40;2.42;;;1.33;;
56927;SDS011;60850;52.502;13.426;2022-12-29T02:07:13;4.50;;;1.80;;
56927;SDS011;60850;52.502;13.426;2022-12-29T02:09:45;4.82;;;2.67;;
56927;SDS011;60850;52.502;13.426;2022-12-29T02:12:14;5.22;;;1.90;;
56927;SDS011;60850;52.502;13.426;2022-12-29T02:14:42;5.82;;;1.70;;
56927;SDS011;60850;52.502;13.426;2022-12-29T02:17:11;3.00;;;1.58;;
56927;SDS011;60850;52.502;13.426;2022-12-29T02:26:13;10.63;;;2.75;;
56927;SDS011;60850;52.502;13.426;2022-12-29T02:31:51;6.50;;;2.60;;
56927;SDS011;60850;52.502;13.426;2022-12-29T02:34:26;6.57;;;3.05;;
56927;SDS011;60850;52.502;13.426;2022-12-29T02:37:04;4.65;;;2.28;;
56927;SDS011;60850;52.502;13.426;2022-12-29T02:39:38;3.15;;;1.60;;
56927;SDS011;60850;52.502;13.426;2022-12-29T02:42:12;3.22;;;1.80;;
56927;SDS011;60850;52.502;13.426;2022-12-29T02:44:50;6.32;;;2.35;;
56927;SDS011;60850;52.502;13.426;2022-12-29T02:47:26;5.15;;;2.00;;
56927;SDS011;60850;52.502;13.426;2022-12-29T02:49:59;2.70;;;1.70;;
56927;SDS011;60850;52.502;13.426;2022-12-29T02:52:31;5.68;;;1.98;;
56927;SDS011;60850;52.502;13.426;2022-12-29T02:55:02;3.78;;;1.40;;
56927;SDS011;60850;52.502;13.426;2022-12-29T02:57:29;1.60;;;1.30;;
56927;SDS011;60850;52.502;13.426;2022-12-29T03:00:00;3.03;;;1.30;;
56927;SDS011;60850;52.502;13.426;2022-12-29T03:02:34;2.38;;;1.35;;
56927;SDS011;60850;52.502;13.426;2022-12-29T03:05:28;2.63;;;1.75;;
56927;SDS011;60850;52.502;13.426;2022-12-29T03:08:11;1.52;;;1.10;;
56927;SDS011;60850;52.502;13.426;2022-12-29T03:10:46;7.25;;;3.60;;
56927;SDS011;60850;52.502;13.426;2022-12-29T03:13:19;2.47;;;1.48;;
56927;SDS011;60850;52.502;13.426;2022-12-29T03:16:11;1.73;;;1.10;;
56927;SDS011;60850;52.502;13.426;2022-12-29T03:18:49;2.38;;;1.67;;
56927;SDS011;60850;52.502;13.426;2022-12-29T03:21:24;3.25;;;1.02;;
56927;SDS011;60850;52.502;13.426;2022-12-29T03:24:10;4.07;;;1.05;;
56927;SDS011;60850;52.502;13.426;2022-12-29T03:26:37;2.70;;;1.23;;
56927;SDS011;60850;52.502;13.426;2022-12-29T03:29:07;2.97;;;1.20;;
56927;SDS011;60850;52.502;13.426;2022-12-29T03:31:35;2.45;;;1.20;;
56927;SDS011;60850;52.502;13.426;2022-12-29T03:34:05;1.65;;;1.10;;
56927;SDS011;60850;52.502;13.426;2022-12-29T03:36:35;2.17;;;1.30;;
56927;SDS011;60850;52.502;13.426;2022-12-29T03:39:10;2.13;;;1.20;;
56927;SDS011;60850;52.502;13.426;2022-12-29T03:41:39;4.38;;;1.60;;
56927;SDS011;60850;52.502;13.426;2022-12-29T03:44:10;2.10;;;1.30;;
56927;SDS011;60850;52.502;13.426;2022-12-29T03:46:37;2.92;;;1.13;;
56927;SDS011;60850;52.502;13.426;2022-12-29T03:49:06;2.70;;;1.20;;
56927;SDS011;60850;52.502;13.426;2022-12-29T03:51:33;1.83;;;1.00;;
56927;SDS011;60850;52.502;13.426;2022-12-29T03:54:00;2.47;;;1.30;;
56927;SDS011;60850;52.502;13.426;2022-12-29T03:56:27;4.07;;;1.60;;
56927;SDS011;60850;52.502;13.426;2022-12-29T03:58:54;2.58;;;1.20;;
56927;SDS011;60850;52.502;13.426;2022-12-29T04:01:21;1.95;;;1.30;;
56927;SDS011;60850;52.502;13.426;2022-12-29T04:03:48;2.75;;;1.27;;
56927;SDS011;60850;52.502;13.426;2022-12-29T04:06:17;2.58;;;1.20;;
56927;SDS011;60850;52.502;13.426;2022-12-29T04:08:44;1.95;;;1.30;;
56927;SDS011;60850;52.502;13.426;2022-12-29T04:11:10;1.85;;;1.20;;
56927;SDS011;60850;52.502;13.426;2022-12-29T04:13:38;1.75;;;1.23;;
56927;SDS011;60850;52.502;13.426;2022-12-29T04:16:06;1.48;;;1.02;;
56927;SDS011;60850;52.502;13.426;2022-12-29T04:18:33;2.70;;;1.10;;
56927;SDS011;60850;52.502;13.426;2022-12-29T04:21:00;2.25;;;1.20;;
56927;SDS011;60850;52.502;13.426;2022-12-29T04:23:30;4.18;;;1.30;;
56927;SDS011;60850;52.502;13.426;2022-12-29T04:25:58;3.45;;;1.65;;
56927;SDS011;60850;52.502;13.426;2022-12-29T04:28:26;2.47;;;1.08;;
56927;SDS011;60850;52.502;13.426;2022-12-29T04:30:53;1.70;;;1.27;;
56927;SDS011;60850;52.502;13.426;2022-12-29T04:33:20;4.45;;;1.40;;
56927;SDS011;60850;52.502;13.426;2022-12-29T04:35:47;1.10;;;1.00;;
56927;SDS011;60850;52.502;13.426;2022-12-29T04:38:15;2.28;;;1.17;;
56927;SDS011;60850;52.502;13.426;2022-12-29T04:40:43;1.45;;;1.25;;
56927;SDS011;60850;52.502;13.426;2022-12-29T04:43:11;1.95;;;1.13;;
56927;SDS011;60850;52.502;13.426;2022-12-29T04:45:38;1.30;;;1.20;;
56927;SDS011;60850;52.502;13.426;2022-12-29T04:48:05;2.97;;;1.40;;
56927;SDS011;60850;52.502;13.426;2022-12-29T04:50:32;2.88;;;1.25;;
56927;SDS011;60850;52.502;13.426;2022-12-29T04:53:00;1.48;;;1.05;;
56927;SDS011;60850;52.502;13.426;2022-12-29T04:55:27;1.48;;;1.10;;
56927;SDS011;60850;52.502;13.426;2022-12-29T04:57:55;1.38;;;1.15;;
56927;SDS011;60850;52.502;13.426;2022-12-29T05:00:22;2.75;;;1.20;;
56927;SDS011;60850;52.502;13.426;2022-12-29T05:02:49;2.88;;;1.70;;
56927;SDS011;60850;52.502;13.426;2022-12-29T05:05:16;2.78;;;1.33;;
56927;SDS011;60850;52.502;13.426;2022-12-29T05:07:44;1.63;;;1.38;;
56927;SDS011;60850;52.502;13.426;2022-12-29T05:10:11;1.40;;;1.20;;
56927;SDS011;60850;52.502;13.426;2022-12-29T05:12:38;3.35;;;1.48;;
56927;SDS011;60850;52.502;13.426;2022-12-29T05:15:08;1.52;;;1.20;;
56927;SDS011;60850;52.502;13.426;2022-12-29T05:17:36;2.00;;;1.40;;
56927;SDS011;60850;52.502;13.426;2022-12-29T05:20:04;2.53;;;1.17;;
56927;SDS011;60850;52.502;13.426;2022-12-29T05:22:32;2.30;;;1.10;;
56927;SDS011;60850;52.502;13.426;2022-12-29T05:24:58;3.15;;;1.15;;
56927;SDS011;60850;52.502;13.426;2022-12-29T05:27:26;1.73;;;1.20;;
56927;SDS011;60850;52.502;13.426;2022-12-29T05:29:53;2.13;;;1.40;;
56927;SDS011;60850;52.502;13.426;2022-12-29T05:32:21;1.58;;;1.05;;
56927;SDS011;60850;52.502;13.426;2022-12-29T05:34:48;2.72;;;1.80;;
56927;SDS011;60850;52.502;13.426;2022-12-29T05:37:15;3.55;;;1.55;;
56927;SDS011;60850;52.502;13.426;2022-12-29T05:39:42;5.00;;;1.30;;
56927;SDS011;60850;52.502;13.426;2022-12-29T05:42:09;2.80;;;1.25;;
56927;SDS011;60850;52.502;13.426;2022-12-29T05:44:36;2.25;;;1.52;;
56927;SDS011;60850;52.502;13.426;2022-12-29T05:47:04;2.17;;;1.10;;
56927;SDS011;60850;52.502;13.426;2022-12-29T05:49:32;2.40;;;1.33;;
56927;SDS011;60850;52.502;13.426;2022-12-29T05:52:00;3.13;;;1.20;;
56927;SDS011;60850;52.502;13.426;2022-12-29T05:54:26;2.17;;;1.20;;
56927;SDS011;60850;52.502;13.426;2022-12-29T05:56:54;1.55;;;1.30;;
56927;SDS011;60850;52.502;13.426;2022-12-29T05:59:20;3.15;;;1.38;;
56927;SDS011;60850;52.502;13.426;2022-12-29T06:01:48;1.83;;;1.33;;
56927;SDS011;60850;52.502;13.426;2022-12-29T06:04:15;2.22;;;1.30;;
56927;SDS011;60850;52.502;13.426;2022-12-29T06:06:43;2.53;;;1.60;;
56927;SDS011;60850;52.502;13.426;2022-12-29T06:09:10;2.58;;;1.30;;
56927;SDS011;60850;52.502;13.426;2022-12-29T06:11:37;2.22;;;1.20;;
56927;SDS011;60850;52.502;13.426;2022-12-29T06:14:04;2.40;;;1.65;;
56927;SDS011;60850;52.502;13.426;2022-12-29T06:16:31;5.43;;;1.30;;
56927;SDS011;60850;52.502;13.426;2022-12-29T06:18:58;1.38;;;1.10;;
56927;SDS011;60850;52.502;13.426;2022-12-29T06:21:25;1.50;;;1.10;;
56927;SDS011;60850;52.502;13.426;2022-12-29T06:23:54;1.70;;;1.23;;
56927;SDS011;60850;52.502;13.426;2022-12-29T06:26:21;1.63;;;1.10;;
56927;SDS011;60850;52.502;13.426;2022-12-29T06:28:48;2.53;;;1.45;;
56927;SDS011;60850;52.502;13.426;2022-12-29T06:31:15;1.80;;;1.23;;
56927;SDS011;60850;52.502;13.426;2022-12-29T06:33:42;1.63;;;1.00;;
56927;SDS011;60850;52.502;13.426;2022-12-29T06:36:09;3.22;;;1.40;;
56927;SDS011;60850;52.502;13.426;2022-12-29T06:38:36;1.85;;;1.17;;
56927;SDS011;60850;52.502;13.426;2022-12-29T06:41:04;2.17;;;0.90;;
56927;SDS011;60850;52.502;13.426;2022-12-29T06:43:31;2.67;;;1.17;;
56927;SDS011;60850;52.502;13.426;2022-12-29T06:45:59;2.70;;;1.05;;
56927;SDS011;60850;52.502;13.426;2022-12-29T06:48:26;1.65;;;0.88;;
56927;SDS011;60850;52.502;13.426;2022-12-29T06:50:53;3.33;;;1.30;;
56927;SDS011;60850;52.502;13.426;2022-12-29T06:53:20;2.38;;;1.10;;
56927;SDS011;60850;52.502;13.426;2022-12-29T06:55:47;2.88;;;1.10;;
56927;SDS011;60850;52.502;13.426;2022-12-29T06:58:15;2.35;;;1.40;;
56927;SDS011;60850;52.502;13.426;2022-12-29T07:00:42;1.33;;;0.95;;
56927;SDS011;60850;52.502;13.426;2022-12-29T07:03:09;3.63;;;1.10;;
56927;SDS011;60850;52.502;13.426;2022-12-29T07:05:36;3.33;;;1.38;;
56927;SDS011;60850;52.502;13.426;2022-12-29T07:08:03;3.65;;;1.40;;
56927;SDS011;60850;52.502;13.426;2022-12-29T07:10:31;3.50;;;1.48;;
56927;SDS011;60850;52.502;13.426;2022-12-29T07:12:58;2.53;;;0.95;;
56927;SDS011;60850;52.502;13.426;2022-12-29T07:15:26;1.10;;;0.98;;
56927;SDS011;60850;52.502;13.426;2022-12-29T07:17:53;3.15;;;1.70;;
56927;SDS011;60850;52.502;13.426;2022-12-29T07:20:20;2.50;;;1.10;;
56927;SDS011;60850;52.502;13.426;2022-12-29T07:22:47;3.45;;;1.33;;
56927;SDS011;60850;52.502;13.426;2022-12-29T07:25:15;2.42;;;1.20;;
56927;SDS011;60850;52.502;13.426;2022-12-29T07:27:42;1.52;;;0.88;;
56927;SDS011;60850;52.502;13.426;2022-12-29T07:30:10;2.60;;;1.33;;
56927;SDS011;60850;52.502;13.426;2022-12-29T07:32:39;2.25;;;1.27;;
56927;SDS011;60850;52.502;13.426;2022-12-29T07:35:06;2.35;;;1.23;;
56927;SDS011;60850;52.502;13.426;2022-12-29T07:37:34;1.73;;;0.90;;
56927;SDS011;60850;52.502;13.426;2022-12-29T07:40:01;2.00;;;1.33;;
56927;SDS011;60850;52.502;13.426;2022-12-29T07:42:29;1.30;;;1.00;;
56927;SDS011;60850;52.502;13.426;2022-12-29T07:44:57;1.10;;;1.00;;
56927;SDS011;60850;52.502;13.426;2022-12-29T07:47:23;1.58;;;1.13;;
56927;SDS011;60850;52.502;13.426;2022-12-29T07:49:52;1.17;;;0.80;;
56927;SDS011;60850;52.502;13.426;2022-12-29T07:52:19;3.72;;;1.67;;
56927;SDS011;60850;52.502;13.426;2022-12-29T07:54:46;3.28;;;1.02;;
56927;SDS011;60850;52.502;13.426;2022-12-29T07:57:13;4.25;;;1.15;;
56927;SDS011;60850;52.502;13.426;2022-12-29T07:59:40;1.70;;;1.10;;
56927;SDS011;60850;52.502;13.426;2022-12-29T08:02:08;2.45;;;1.20;;
56927;SDS011;60850;52.502;13.426;2022-12-29T08:04:36;2.97;;;0.98;;
56927;SDS011;60850;52.502;13.426;2022-12-29T08:07:05;1.17;;;0.77;;
56927;SDS011;60850;52.502;13.426;2022-12-29T08:09:32;3.88;;;2.05;;
56927;SDS011;60850;52.502;13.426;2022-12-29T08:11:59;1.95;;;1.27;;
56927;SDS011;60850;52.502;13.426;2022-12-29T08:14:26;2.13;;;1.25;;
56927;SDS011;60850;52.502;13.426;2022-12-29T08:16:53;2.90;;;1.52;;
56927;SDS011;60850;52.502;13.426;2022-12-29T08:19:20;2.30;;;1.40;;
56927;SDS011;60850;52.502;13.426;2022-12-29T08:21:47;1.95;;;1.17;;
56927;SDS011;60850;52.502;13.426;2022-12-29T08:24:15;1.55;;;1.10;;
56927;SDS011;60850;52.502;13.426;2022-12-29T08:26:42;2.53;;;1.10;;
56927;SDS011;60850;52.502;13.426;2022-12-29T08:29:09;2.42;;;1.23;;
56927;SDS011;60850;52.502;13.426;2022-12-29T08:31:36;1.70;;;1.00;;
56927;SDS011;60850;52.502;13.426;2022-12-29T08:34:04;3.17;;;1.88;;
56927;SDS011;60850;52.502;13.426;2022-12-29T08:36:31;2.25;;;1.20;;
56927;SDS011;60850;52.502;13.426;2022-12-29T08:38:58;2.20;;;1.08;;
56927;SDS011;60850;52.502;13.426;2022-12-29T08:41:27;1.85;;;1.10;;
56927;SDS011;60850;52.502;13.426;2022-12-29T08:43:54;2.50;;;1.10;;
56927;SDS011;60850;52.502;13.426;2022-12-29T08:46:21;1.60;;;0.88;;
56927;SDS011;60850;52.502;13.426;2022-12-29T08:48:48;3.22;;;1.30;;
56927;SDS011;60850;52.502;13.426;2022-12-29T08:51:15;4.13;;;1.48;;
56927;SDS011;60850;52.502;13.426;2022-12-29T08:53:43;2.35;;;1.30;;
56927;SDS011;60850;52.502;13.426;2022-12-29T08:56:10;2.08;;;1.00;;
56927;SDS011;60850;52.502;13.426;2022-12-29T08:58:39;2.22;;;1.48;;
56927;SDS011;60850;52.502;13.426;2022-12-29T09:01:06;2.22;;;1.30;;
56927;SDS011;60850;52.502;13.426;2022-12-29T09:03:33;2.72;;;1.08;;
56927;SDS011;60850;52.502;13.426;2022-12-29T09:06:00;2.25;;;1.13;;
56927;SDS011;60850;52.502;13.426;2022-12-29T09:08:27;1.85;;;0.90;;
56927;SDS011;60850;52.502;13.426;2022-12-29T09:10:54;2.35;;;1.00;;
56927;SDS011;60850;52.502;13.426;2022-12-29T09:13:21;1.88;;;1.20;;
56927;SDS011;60850;52.502;13.426;2022-12-29T09:15:55;2.83;;;1.38;;
56927;SDS011;60850;52.502;13.426;2022-12-29T09:18:24;1.55;;;1.10;;
56927;SDS011;60850;52.502;13.426;2022-12-29T09:20:55;3.58;;;1.50;;
56927;SDS011;60850;52.502;13.426;2022-12-29T09:23:23;3.15;;;1.20;;
56927;SDS011;60850;52.502;13.426;2022-12-29T09:25:50;5.05;;;1.20;;
56927;SDS011;60850;52.502;13.426;2022-12-29T09:28:17;1.90;;;0.90;;
56927;SDS011;60850;52.502;13.426;2022-12-29T09:30:44;4.30;;;1.30;;
56927;SDS011;60850;52.502;13.426;2022-12-29T09:33:12;3.35;;;1.38;;
56927;SDS011;60850;52.502;13.426;2022-12-29T09:35:41;1.98;;;1.02;;
56927;SDS011;60850;52.502;13.426;2022-12-29T09:38:09;2.10;;;1.00;;
56927;SDS011;60850;52.502;13.426;2022-12-29T09:40:36;3.20;;;0.95;;
56927;SDS011;60850;52.502;13.426;2022-12-29T09:43:15;2.28;;;0.88;;
56927;SDS011;60850;52.502;13.426;2022-12-29T09:45:53;2.50;;;0.95;;
56927;SDS011;60850;52.502;13.426;2022-12-29T09:48:28;1.60;;;1.05;;
56927;SDS011;60850;52.502;13.426;2022-12-29T09:50:59;2.35;;;1.02;;
56927;SDS011;60850;52.502;13.426;2022-12-29T09:53:30;6.05;;;1.10;;
56927;SDS011;60850;52.502;13.426;2022-12-29T09:56:03;2.35;;;1.13;;
56927;SDS011;60850;52.502;13.426;2022-12-29T09:58:39;1.60;;;0.90;;
56927;SDS011;60850;52.502;13.426;2022-12-29T10:01:14;2.08;;;1.00;;
56927;SDS011;60850;52.502;13.426;2022-12-29T10:03:50;2.15;;;1.20;;
56927;SDS011;60850;52.502;13.426;2022-12-29T10:06:20;2.47;;;1.17;;
56927;SDS011;60850;52.502;13.426;2022-12-29T10:08:52;1.90;;;1.10;;
56927;SDS011;60850;52.502;13.426;2022-12-29T10:11:27;2.30;;;1.55;;
56927;SDS011;60850;52.502;13.426;2022-12-29T10:14:15;1.58;;;1.10;;
56927;SDS011;60850;52.502;13.426;2022-12-29T10:17:00;2.63;;;1.00;;
56927;SDS011;60850;52.502;13.426;2022-12-29T10:19:36;1.90;;;1.00;;
56927;SDS011;60850;52.502;13.426;2022-12-29T10:22:17;2.22;;;1.52;;
56927;SDS011;60850;52.502;13.426;2022-12-29T10:24:54;4.20;;;1.48;;
56927;SDS011;60850;52.502;13.426;2022-12-29T10:27:22;2.92;;;1.17;;
56927;SDS011;60850;52.502;13.426;2022-12-29T10:29:52;2.35;;;1.13;;
56927;SDS011;60850;52.502;13.426;2022-12-29T10:32:23;2.38;;;1.50;;
56927;SDS011;60850;52.502;13.426;2022-12-29T10:34:57;3.17;;;1.63;;
56927;SDS011;60850;52.502;13.426;2022-12-29T10:40:12;3.15;;;1.45;;
56927;SDS011;60850;52.502;13.426;2022-12-29T10:42:45;2.67;;;1.33;;
56927;SDS011;60850;52.502;13.426;2022-12-29T10:45:17;1.77;;;1.33;;
56927;SDS011;60850;52.502;13.426;2022-12-29T10:47:49;1.58;;;1.00;;
56927;SDS011;60850;52.502;13.426;2022-12-29T10:50:21;1.20;;;1.00;;
56927;SDS011;60850;52.502;13.426;2022-12-29T10:52:50;5.80;;;1.30;;
56927;SDS011;60850;52.502;13.426;2022-12-29T10:55:19;2.90;;;1.10;;
56927;SDS011;60850;52.502;13.426;2022-12-29T10:57:49;1.83;;;1.10;;
56927;SDS011;60850;52.502;13.426;2022-12-29T11:00:18;1.95;;;1.10;;
56927;SDS011;60850;52.502;13.426;2022-12-29T11:02:49;2.35;;;1.25;;
56927;SDS011;60850;52.502;13.426;2022-12-29T11:05:34;1.42;;;1.00;;
56927;SDS011;60850;52.502;13.426;2022-12-29T11:08:08;1.42;;;1.10;;
56927;SDS011;60850;52.502;13.426;2022-12-29T11:10:39;3.00;;;1.00;;
56927;SDS011;60850;52.502;13.426;2022-12-29T11:13:11;2.55;;;1.20;;
56927;SDS011;60850;52.502;13.426;2022-12-29T11:15:41;2.30;;;1.20;;
56927;SDS011;60850;52.502;13.426;2022-12-29T11:18:19;1.40;;;1.05;;
56927;SDS011;60850;52.502;13.426;2022-12-29T11:20:50;1.60;;;1.10;;
56927;SDS011;60850;52.502;13.426;2022-12-29T11:23:26;1.67;;;1.02;;
56927;SDS011;60850;52.502;13.426;2022-12-29T11:29:03;2.53;;;1.13;;
56927;SDS011;60850;52.502;13.426;2022-12-29T11:31:44;1.92;;;1.27;;
56927;SDS011;60850;52.502;13.426;2022-12-29T11:34:18;4.68;;;1.13;;
56927;SDS011;60850;52.502;13.426;2022-12-29T11:36:48;2.70;;;1.27;;
56927;SDS011;60850;52.502;13.426;2022-12-29T11:39:34;1.80;;;1.05;;
56927;SDS011;60850;52.502;13.426;2022-12-29T11:42:11;2.72;;;1.00;;
56927;SDS011;60850;52.502;13.426;2022-12-29T11:44:42;1.55;;;0.85;;
56927;SDS011;60850;52.502;13.426;2022-12-29T11:47:13;2.05;;;1.15;;
56927;SDS011;60850;52.502;13.426;2022-12-29T11:49:49;3.47;;;1.30;;
56927;SDS011;60850;52.502;13.426;2022-12-29T11:52:21;1.77;;;1.33;;
56927;SDS011;60850;52.502;13.426;2022-12-29T11:54:50;5.10;;;1.80;;
56927;SDS011;60850;52.502;13.426;2022-12-29T11:57:19;3.15;;;1.40;;
56927;SDS011;60850;52.502;13.426;2022-12-29T11:59:51;1.80;;;0.93;;
56927;SDS011;60850;52.502;13.426;2022-12-29T12:02:37;3.25;;;1.80;;
56927;SDS011;60850;52.502;13.426;2022-12-29T12:05:10;3.33;;;1.08;;
56927;SDS011;60850;52.502;13.426;2022-12-29T12:07:44;2.33;;;1.00;;
56927;SDS011;60850;52.502;13.426;2022-12-29T12:10:19;3.42;;;1.23;;
56927;SDS011;60850;52.502;13.426;2022-12-29T12:12:54;2.70;;;0.88;;
56927;SDS011;60850;52.502;13.426;2022-12-29T12:15:27;1.85;;;0.80;;
56927;SDS011;60850;52.502;13.426;2022-12-29T12:18:02;1.67;;;0.63;;
56927;SDS011;60850;52.502;13.426;2022-12-29T12:20:35;2.97;;;1.00;;
56927;SDS011;60850;52.502;13.426;2022-12-29T12:23:12;3.20;;;0.80;;
56927;SDS011;60850;52.502;13.426;2022-12-29T12:25:49;2.72;;;1.80;;
56927;SDS011;60850;52.502;13.426;2022-12-29T12:28:25;4.20;;;1.38;;
56927;SDS011;60850;52.502;13.426;2022-12-29T12:30:59;3.97;;;1.70;;
56927;SDS011;60850;52.502;13.426;2022-12-29T12:33:31;2.75;;;1.25;;
56927;SDS011;60850;52.502;13.426;2022-12-29T12:36:15;3.00;;;1.27;;
56927;SDS011;60850;52.502;13.426;2022-12-29T12:38:56;4.80;;;2.22;;
56927;SDS011;60850;52.502;13.426;2022-12-29T12:41:31;2.95;;;1.40;;
56927;SDS011;60850;52.502;13.426;2022-12-29T12:44:10;3.55;;;1.20;;
56927;SDS011;60850;52.502;13.426;2022-12-29T12:46:52;2.95;;;1.10;;
56927;SDS011;60850;52.502;13.426;2022-12-29T12:52:55;3.17;;;2.20;;
56927;SDS011;60850;52.502;13.426;2022-12-29T12:55:51;5.05;;;1.42;;
56927;SDS011;60850;52.502;13.426;2022-12-29T12:58:31;2.45;;;1.30;;
56927;SDS011;60850;52.502;13.426;2022-12-29T13:01:11;3.47;;;1.02;;
56927;SDS011;60850;52.502;13.426;2022-12-29T13:03:54;2.83;;;1.10;;
56927;SDS011;60850;52.502;13.426;2022-12-29T13:06:36;1.85;;;1.33;;
56927;SDS011;60850;52.502;13.426;2022-12-29T13:09:20;2.10;;;1.10;;
56927;SDS011;60850;52.502;13.426;2022-12-29T13:12:03;5.70;;;2.92;;
56927;SDS011;60850;52.502;13.426;2022-12-29T13:14:46;4.18;;;2.00;;
56927;SDS011;60850;52.502;13.426;2022-12-29T13:17:26;4.88;;;1.98;;
56927;SDS011;60850;52.502;13.426;2022-12-29T13:20:06;4.30;;;1.50;;
56927;SDS011;60850;52.502;13.426;2022-12-29T13:22:47;3.13;;;1.50;;
56927;SDS011;60850;52.502;13.426;2022-12-29T13:25:26;5.35;;;2.05;;
56927;SDS011;60850;52.502;13.426;2022-12-29T13:28:02;6.82;;;1.75;;
56927;SDS011;60850;52.502;13.426;2022-12-29T13:30:38;3.92;;;2.03;;
56927;SDS011;60850;52.502;13.426;2022-12-29T13:33:14;4.28;;;2.38;;
56927;SDS011;60850;52.502;13.426;2022-12-29T13:35:54;5.95;;;2.75;;
56927;SDS011;60850;52.502;13.426;2022-12-29T13:38:29;4.28;;;2.03;;
56927;SDS011;60850;52.502;13.426;2022-12-29T13:41:02;4.50;;;2.20;;
56927;SDS011;60850;52.502;13.426;2022-12-29T13:43:37;4.10;;;1.83;;
56927;SDS011;60850;52.502;13.426;2022-12-29T13:46:07;5.10;;;2.22;;
56927;SDS011;60850;52.502;13.426;2022-12-29T13:48:39;4.32;;;1.80;;
56927;SDS011;60850;52.502;13.426;2022-12-29T13:51:12;3.92;;;2.58;;
56927;SDS011;60850;52.502;13.426;2022-12-29T13:53:54;5.43;;;2.13;;
56927;SDS011;60850;52.502;13.426;2022-12-29T13:56:30;3.95;;;1.80;;
56927;SDS011;60850;52.502;13.426;2022-12-29T13:59:05;2.83;;;1.30;;
56927;SDS011;60850;52.502;13.426;2022-12-29T14:01:39;3.80;;;1.70;;
56927;SDS011;60850;52.502;13.426;2022-12-29T14:04:14;3.00;;;1.40;;
56927;SDS011;60850;52.502;13.426;2022-12-29T14:06:47;2.95;;;1.67;;
56927;SDS011;60850;52.502;13.426;2022-12-29T14:09:31;4.50;;;2.33;;
56927;SDS011;60850;52.502;13.426;2022-12-29T14:12:21;3.97;;;2.25;;
56927;SDS011;60850;52.502;13.426;2022-12-29T14:15:05;2.88;;;1.92;;
56927;SDS011;60850;52.502;13.426;2022-12-29T14:17:41;3.38;;;1.33;;
56927;SDS011;60850;52.502;13.426;2022-12-29T14:20:17;3.55;;;1.67;;
56927;SDS011;60850;52.502;13.426;2022-12-29T14:22:57;7.78;;;2.20;;
56927;SDS011;60850;52.502;13.426;2022-12-29T14:28:22;3.08;;;1.52;;
56927;SDS011;60850;52.502;13.426;2022-12-29T14:30:53;6.38;;;2.28;;
56927;SDS011;60850;52.502;13.426;2022-12-29T14:33:22;4.45;;;2.25;;
56927;SDS011;60850;52.502;13.426;2022-12-29T14:35:52;4.25;;;1.92;;
56927;SDS011;60850;52.502;13.426;2022-12-29T14:38:25;4.03;;;1.63;;
56927;SDS011;60850;52.502;13.426;2022-12-29T14:43:50;5.63;;;2.53;;
56927;SDS011;60850;52.502;13.426;2022-12-29T14:46:21;3.83;;;2.53;;
56927;SDS011;60850;52.502;13.426;2022-12-29T14:48:52;4.55;;;2.65;;
56927;SDS011;60850;52.502;13.426;2022-12-29T14:51:31;6.03;;;2.53;;
56927;SDS011;60850;52.502;13.426;2022-12-29T14:54:07;7.95;;;3.20;;
56927;SDS011;60850;52.502;13.426;2022-12-29T14:57:10;5.22;;;2.90;;
56927;SDS011;60850;52.502;13.426;2022-12-29T14:59:44;7.15;;;3.22;;
56927;SDS011;60850;52.502;13.426;2022-12-29T15:02:15;5.00;;;3.00;;
56927;SDS011;60850;52.502;13.426;2022-12-29T15:04:45;8.60;;;3.45;;
56927;SDS011;60850;52.502;13.426;2022-12-29T15:07:13;8.63;;;3.47;;
56927;SDS011;60850;52.502;13.426;2022-12-29T15:09:44;9.93;;;3.95;;
56927;SDS011;60850;52.502;13.426;2022-12-29T15:12:18;7.72;;;3.97;;
56927;SDS011;60850;52.502;13.426;2022-12-29T15:14:51;12.27;;;4.93;;
56927;SDS011;60850;52.502;13.426;2022-12-29T15:17:25;14.35;;;6.20;;
56927;SDS011;60850;52.502;13.426;2022-12-29T15:19:54;9.52;;;4.15;;
56927;SDS011;60850;52.502;13.426;2022-12-29T15:22:23;12.93;;;5.45;;
56927;SDS011;60850;52.502;13.426;2022-12-29T15:24:51;9.75;;;4.32;;
56927;SDS011;60850;52.502;13.426;2022-12-29T15:27:20;9.35;;;3.95;;
56927;SDS011;60850;52.502;13.426;2022-12-29T15:29:55;8.07;;;3.45;;